Moron De La Frontera, Spain

3:31 PM CET on February 07, 2016 (GMT +0100)
Moron Air Base | | Change Station
CLOSE
Current Station
Airport
Location: Moron de la Frontera,
Elevation: 289 ft
Nearby Weather Stations

Elev 289 ft 37.16 °N, 5.62 °W | Updated 31 minutes ago

Partly Cloudy
Partly Cloudy
63 °F
Feels Like 63 °F
N
9
Wind Variable Wind from WNW

Today
High -- | Low -- °F
--% Chance of Precip.
Yesterday
High -- | Low -- °F
Precip. -- in
Pressure 30.27 in
Visibility 6.2 miles
Clouds Few 4500 ft
Dew Point 45 °F
Humidity 52%
Rainfall 0.00 in
Snow Depth Not available.
8:20 AM 6:53 PM
Waning Crescent, 1% visible
METAR LEMO 071400Z 30008KT 9999 FEW045 17/07 Q1025 NOSIG
Pressure 30.27 in
Visibility 6.2 miles
Clouds Few 4500 ft
Dew Point 45 °F
Humidity 52%
Rainfall 0.00 in
Snow Depth Not available.
8:20 AM 6:53 PM
Waning Crescent, 1% visible
METAR LEMO 071400Z 30008KT 9999 FEW045 17/07 Q1025 NOSIG

10-Day Weather Forecast

Almanac

Astronomy

Feb. 07, 2016 Rise Set
Actual Time
Civil Twilight
Nautical Twilight
Astronomical Twilight
Moon
Length of Visible Light
Length of Day
Tomorrow will be .
, % of the Moon is Illuminated

Today's Extremes

Country Highs Country Lows

Community

WunderPhotos

Upload Photos

1,891,204 photos uploaded!

WunderBlog® & News

Nearby

Air Quality

  Air Quality AQ Index Pollutant
Not available.

Snow Depth

Station Depth Elevation

Earthquake Activity

City Distance Mag. Time & Date
Minimum magnitude displayed is 2.5.

Coastal Water Temperatures

Place Temperature

Stations

Nearby Weather Stations

Station Location Temp. Windchill Dew Point Humidity Wind Precip. Elev Updated Type